Time;durP1;ratioP1;P1;durP2;ratioP2;P2;SDS_P1;SDS_P2;PMS_P1;PMS_P2;Temp;Humidity;BMP_temperature;BMP_pressure;BME280_temperature;BME280_humidity;BME280_pressure;Samples;Min_cycle;Max_cycle;Signal;HPM_P1;HPM_P2
2022/05/05 00:02:10;;;;;;;9.60;4.82;;;;;;;;;;5016500;28;20396;-77
2022/05/05 00:04:40;;;;;;;10.15;5.03;;;;;;;;;;5008928;28;20056;-77
2022/05/05 00:07:06;;;;;;;10.88;5.32;;;;;;;;;;5014624;28;20026;-77
2022/05/05 00:09:36;;;;;;;12.15;5.38;;;;;;;;;;5012894;28;20026;-77
2022/05/05 00:14:48;;;;;;;9.98;5.53;;;;;;;;;;5018270;28;20130;-76
2022/05/05 00:17:15;;;;;;;12.80;5.43;;;;;;;;;;5012877;28;20021;-76
2022/05/05 00:19:45;;;;;;;13.40;6.07;;;;;;;;;;5015288;28;20030;-77
2022/05/05 00:22:15;;;;;;;12.00;4.88;;;;;;;;;;5019434;28;20026;-77
2022/05/05 00:24:46;;;;;;;10.00;5.95;;;;;;;;;;5020373;28;20053;-77
2022/05/05 00:27:16;;;;;;;12.25;5.35;;;;;;;;;;5023011;28;20249;-78
2022/05/05 00:29:48;;;;;;;8.27;4.90;;;;;;;;;;5032478;28;20080;-78
2022/05/05 00:32:24;;;;;;;11.18;4.97;;;;;;;;;;5026129;28;20014;-77
2022/05/05 00:34:50;;;;;;;15.70;5.70;;;;;;;;;;5016495;28;20117;-77
2022/05/05 00:37:23;;;;;;;11.48;6.00;;;;;;;;;;5024158;28;20607;-77
2022/05/05 00:39:58;;;;;;;11.35;5.18;;;;;;;;;;5014990;28;20515;-77
2022/05/05 00:42:24;;;;;;;;;;;;;;;;;;5015046;28;20038;-77
2022/05/05 00:44:50;;;;;;;10.38;5.05;;;;;;;;;;5018832;28;20353;-77
2022/05/05 00:47:19;;;;;;;11.50;5.53;;;;;;;;;;5012357;28;20058;-78
2022/05/05 00:49:49;;;;;;;9.98;5.63;;;;;;;;;;5017488;28;20121;-78
2022/05/05 00:52:16;;;;;;;16.65;5.43;;;;;;;;;;5015086;28;20025;-77
2022/05/05 00:54:42;;;;;;;9.38;5.28;;;;;;;;;;5017372;28;20034;-77
2022/05/05 00:57:09;;;;;;;10.23;5.38;;;;;;;;;;5020818;28;20030;-76
2022/05/05 00:59:37;;;;;;;14.13;5.75;;;;;;;;;;5015842;28;20061;-76
2022/05/05 01:02:03;;;;;;;9.32;4.90;;;;;;;;;;5017946;28;20117;-79
2022/05/05 01:04:40;;;;;;;10.50;5.32;;;;;;;;;;5013477;28;20076;-76
2022/05/05 01:07:06;;;;;;;10.75;5.53;;;;;;;;;;5016315;28;20438;-76
2022/05/05 01:09:43;;;;;;;14.60;5.70;;;;;;;;;;5014631;28;20030;-76
2022/05/05 01:12:10;;;;;;;10.35;5.00;;;;;;;;;;5026539;28;20056;-77
2022/05/05 01:14:44;;;;;;;14.45;5.72;;;;;;;;;;5012633;28;20606;-77
2022/05/05 01:17:11;;;;;;;8.15;5.38;;;;;;;;;;5023811;28;20021;-76
2022/05/05 01:19:38;;;;;;;14.35;7.15;;;;;;;;;;5016999;28;20120;-76
2022/05/05 01:22:06;;;;;;;9.20;6.05;;;;;;;;;;5028733;28;20033;-78
2022/05/05 01:30:02;;;;;;;7.50;5.50;;;;;;;;;;5019573;28;20061;-76
2022/05/05 01:32:37;;;;;;;7.07;5.47;;;;;;;;;;5018226;28;20037;-75
2022/05/05 01:35:07;;;;;;;12.23;5.50;;;;;;;;;;5020660;28;20021;-75
2022/05/05 01:37:36;;;;;;;11.77;5.68;;;;;;;;;;5016801;28;20018;-76
2022/05/05 01:40:02;;;;;;;9.13;5.60;;;;;;;;;;5021016;28;20048;-75
2022/05/05 01:42:28;;;;;;;9.27;4.95;;;;;;;;;;5017084;28;20042;-76
2022/05/05 01:44:54;;;;;;;10.27;5.65;;;;;;;;;;5016437;28;20033;-75
2022/05/05 01:47:20;;;;;;;11.23;6.03;;;;;;;;;;5013185;28;20057;-77
2022/05/05 01:49:46;;;;;;;11.35;6.03;;;;;;;;;;5010439;28;20112;-76
2022/05/05 01:52:13;;;;;;;8.63;5.47;;;;;;;;;;5012656;28;20127;-75
2022/05/05 01:54:39;;;;;;;10.50;6.47;;;;;;;;;;5022310;28;20852;-77
2022/05/05 01:57:06;;;;;;;15.20;5.55;;;;;;;;;;5014603;28;20034;-77
2022/05/05 01:59:33;;;;;;;8.27;6.05;;;;;;;;;;5017355;28;20733;-75
2022/05/05 02:01:59;;;;;;;11.13;5.90;;;;;;;;;;5015262;28;20036;-75
2022/05/05 02:04:25;;;;;;;8.23;5.50;;;;;;;;;;5009399;28;20038;-76
2022/05/05 02:06:52;;;;;;;11.07;5.50;;;;;;;;;;5014561;28;20042;-75
2022/05/05 02:09:18;;;;;;;8.65;5.40;;;;;;;;;;5011484;28;20034;-76
2022/05/05 02:11:44;;;;;;;11.60;6.15;;;;;;;;;;5012349;28;20072;-75
2022/05/05 02:14:10;;;;;;;11.75;5.55;;;;;;;;;;5014902;28;20380;-75
2022/05/05 02:16:36;;;;;;;14.73;6.20;;;;;;;;;;5016161;28;20581;-75
2022/05/05 02:19:02;;;;;;;9.98;4.97;;;;;;;;;;5015089;28;20026;-75
2022/05/05 02:21:28;;;;;;;11.93;5.93;;;;;;;;;;5017875;28;20045;-74
2022/05/05 02:23:54;;;;;;;8.88;5.38;;;;;;;;;;5018729;28;20109;-75
2022/05/05 02:26:20;;;;;;;10.10;5.15;;;;;;;;;;5013126;28;20030;-75
2022/05/05 02:28:49;;;;;;;8.68;5.32;;;;;;;;;;5021252;28;20026;-76
2022/05/05 02:31:15;;;;;;;10.57;5.57;;;;;;;;;;5012053;28;20014;-77
2022/05/05 02:33:41;;;;;;;8.18;5.10;;;;;;;;;;5010928;28;20465;-74
2022/05/05 02:38:52;;;;;;;9.40;6.15;;;;;;;;;;5011550;28;20116;-75
2022/05/05 02:41:18;;;;;;;16.33;6.88;;;;;;;;;;5011873;28;20053;-75
2022/05/05 02:43:44;;;;;;;9.68;6.15;;;;;;;;;;5008682;28;20095;-75
2022/05/05 02:46:10;;;;;;;11.43;5.32;;;;;;;;;;5010264;28;20026;-75
2022/05/05 02:48:37;;;;;;;10.13;5.55;;;;;;;;;;5008644;28;20034;-74
2022/05/05 02:51:03;;;;;;;8.65;5.88;;;;;;;;;;5020718;28;20072;-76
2022/05/05 02:56:16;;;;;;;13.30;5.57;;;;;;;;;;5016735;28;20062;-75
2022/05/05 02:58:42;;;;;;;13.68;5.55;;;;;;;;;;5010699;28;20091;-77
2022/05/05 03:01:08;;;;;;;11.30;6.32;;;;;;;;;;5009123;28;20022;-76
2022/05/05 03:03:35;;;;;;;8.60;4.75;;;;;;;;;;5010951;28;20037;-75
2022/05/05 03:06:01;;;;;;;10.75;5.72;;;;;;;;;;5013971;28;20089;-75
2022/05/05 03:08:27;;;;;;;9.50;5.88;;;;;;;;;;5014750;28;20053;-76
2022/05/05 03:10:53;;;;;;;9.50;5.88;;;;;;;;;;5012297;28;20030;-76
2022/05/05 03:13:19;;;;;;;8.23;5.80;;;;;;;;;;5007636;28;20099;-77
2022/05/05 03:15:45;;;;;;;14.38;6.03;;;;;;;;;;5012630;28;20053;-75
2022/05/05 03:18:11;;;;;;;10.48;6.03;;;;;;;;;;5009576;28;20050;-76
2022/05/05 03:20:37;;;;;;;10.90;6.18;;;;;;;;;;5014057;28;20123;-75
2022/05/05 03:23:03;;;;;;;11.60;5.80;;;;;;;;;;5010915;28;20061;-76
2022/05/05 03:25:29;;;;;;;11.85;5.72;;;;;;;;;;5017930;28;20069;-75
2022/05/05 03:27:56;;;;;;;11.38;5.72;;;;;;;;;;5016162;28;20045;-75
2022/05/05 03:30:22;;;;;;;9.82;5.45;;;;;;;;;;5010764;28;20053;-75
2022/05/05 03:32:49;;;;;;;14.38;6.35;;;;;;;;;;5016585;28;20038;-76
2022/05/05 03:35:15;;;;;;;9.95;5.15;;;;;;;;;;5017882;28;20074;-75
2022/05/05 03:37:41;;;;;;;10.32;5.40;;;;;;;;;;5008737;28;20050;-76
2022/05/05 03:40:07;;;;;;;10.95;6.53;;;;;;;;;;5015595;28;20058;-75
2022/05/05 03:42:33;;;;;;;10.25;5.72;;;;;;;;;;5010755;28;20030;-76
2022/05/05 03:44:59;;;;;;;9.20;5.22;;;;;;;;;;5009931;28;20037;-76
2022/05/05 03:47:25;;;;;;;11.07;5.72;;;;;;;;;;5009077;28;20056;-76
2022/05/05 03:49:51;;;;;;;9.70;5.18;;;;;;;;;;5005570;28;20041;-75
2022/05/05 03:52:17;;;;;;;18.42;5.38;;;;;;;;;;5011159;28;20081;-76
2022/05/05 03:54:46;;;;;;;10.38;5.60;;;;;;;;;;5014404;28;20046;-75
2022/05/05 03:57:12;;;;;;;14.05;4.95;;;;;;;;;;5008473;28;20101;-76
2022/05/05 03:59:38;;;;;;;8.75;5.47;;;;;;;;;;5011625;28;20030;-76
2022/05/05 04:02:04;;;;;;;7.25;5.10;;;;;;;;;;5010194;28;20034;-75
2022/05/05 04:04:30;;;;;;;8.52;5.85;;;;;;;;;;5016660;28;20176;-74
2022/05/05 04:06:57;;;;;;;10.70;5.78;;;;;;;;;;5015657;28;20038;-75
2022/05/05 04:09:26;;;;;;;11.18;5.43;;;;;;;;;;5017695;28;20100;-75
2022/05/05 04:11:52;;;;;;;10.50;5.15;;;;;;;;;;5019354;28;20040;-74
2022/05/05 04:14:18;;;;;;;9.95;5.30;;;;;;;;;;5017047;28;20060;-75
2022/05/05 04:16:44;;;;;;;11.05;6.03;;;;;;;;;;5016688;28;20384;-74
2022/05/05 04:19:11;;;;;;;8.13;5.28;;;;;;;;;;5014728;28;20055;-76
2022/05/05 04:21:38;;;;;;;9.93;5.78;;;;;;;;;;5024460;28;20141;-75
2022/05/05 04:24:05;;;;;;;11.05;5.85;;;;;;;;;;5013300;28;20034;-75
2022/05/05 04:26:34;;;;;;;9.13;5.78;;;;;;;;;;5018999;28;20041;-75
2022/05/05 04:29:00;;;;;;;8.35;4.88;;;;;;;;;;5012960;28;20138;-75
2022/05/05 04:31:29;;;;;;;9.18;4.97;;;;;;;;;;5014265;28;20053;-75
2022/05/05 04:33:55;;;;;;;8.82;5.15;;;;;;;;;;5010778;28;20019;-75
2022/05/05 04:36:21;;;;;;;10.38;5.53;;;;;;;;;;5019695;28;20026;-75
2022/05/05 04:38:47;;;;;;;12.38;5.35;;;;;;;;;;5023874;28;20538;-77
2022/05/05 04:41:13;;;;;;;6.47;5.03;;;;;;;;;;5017033;28;20391;-75
2022/05/05 04:43:39;;;;;;;9.13;5.07;;;;;;;;;;5015649;28;20038;-75
2022/05/05 04:46:06;;;;;;;10.07;5.03;;;;;;;;;;5017827;28;20026;-74
2022/05/05 04:48:32;;;;;;;17.45;5.95;;;;;;;;;;5012117;28;20038;-76
2022/05/05 04:50:58;;;;;;;8.40;5.65;;;;;;;;;;5013510;28;20027;-74
2022/05/05 04:53:24;;;;;;;9.73;5.75;;;;;;;;;;5012944;28;20026;-74
2022/05/05 04:55:50;;;;;;;13.98;5.68;;;;;;;;;;5021547;28;20053;-74
2022/05/05 04:58:16;;;;;;;12.45;5.32;;;;;;;;;;5012347;28;20109;-77
2022/05/05 05:00:44;;;;;;;13.48;5.78;;;;;;;;;;5017408;28;20034;-75
2022/05/05 05:03:32;;;;;;;7.25;5.00;;;;;;;;;;5021876;28;20026;-75
2022/05/05 05:05:56;;;;;;;8.35;5.18;;;;;;;;;;5015794;28;20042;-76
2022/05/05 05:08:23;;;;;;;9.27;5.97;;;;;;;;;;5019044;28;20030;-75
2022/05/05 05:10:49;;;;;;;8.70;5.75;;;;;;;;;;5027311;28;20407;-75
2022/05/05 05:13:15;;;;;;;12.43;5.78;;;;;;;;;;5020936;28;20027;-74
2022/05/05 05:15:41;;;;;;;11.57;5.40;;;;;;;;;;5014189;28;20094;-74
2022/05/05 05:18:07;;;;;;;11.82;5.70;;;;;;;;;;5012686;28;20089;-75
2022/05/05 05:20:33;;;;;;;10.88;4.95;;;;;;;;;;5015807;28;20038;-75
2022/05/05 05:22:59;;;;;;;8.45;5.00;;;;;;;;;;5020287;28;20044;-76
2022/05/05 05:25:25;;;;;;;10.23;5.55;;;;;;;;;;5013347;28;20032;-76
2022/05/05 05:27:51;;;;;;;8.30;5.40;;;;;;;;;;5013582;28;20036;-75
2022/05/05 05:30:17;;;;;;;10.23;6.90;;;;;;;;;;5011394;28;20057;-74
2022/05/05 05:32:43;;;;;;;10.65;5.90;;;;;;;;;;5025920;28;20049;-75
2022/05/05 05:35:10;;;;;;;10.32;5.50;;;;;;;;;;5013682;28;20567;-75
2022/05/05 05:37:36;;;;;;;9.77;5.63;;;;;;;;;;5008956;28;20100;-76
2022/05/05 05:40:02;;;;;;;9.65;5.30;;;;;;;;;;5010363;28;20026;-76
2022/05/05 05:42:28;;;;;;;9.32;5.13;;;;;;;;;;5009230;28;20037;-77
2022/05/05 05:44:54;;;;;;;10.98;5.18;;;;;;;;;;5016941;28;20027;-76
2022/05/05 05:47:20;;;;;;;10.75;5.63;;;;;;;;;;5013186;28;20045;-76
2022/05/05 05:49:46;;;;;;;12.57;6.05;;;;;;;;;;5013802;28;20143;-75
2022/05/05 05:52:12;;;;;;;6.53;5.05;;;;;;;;;;5011155;28;20044;-76
2022/05/05 05:54:38;;;;;;;9.18;5.82;;;;;;;;;;5008452;28;20038;-77
2022/05/05 05:57:04;;;;;;;11.10;5.32;;;;;;;;;;5013104;28;20048;-75
2022/05/05 05:59:31;;;;;;;11.50;5.72;;;;;;;;;;5013914;28;20101;-75
2022/05/05 06:04:41;;;;;;;12.35;5.22;;;;;;;;;;5019662;28;20041;-75
2022/05/05 06:07:08;;;;;;;10.38;4.80;;;;;;;;;;5012534;28;20044;-75
2022/05/05 06:09:34;;;;;;;10.10;5.47;;;;;;;;;;5012653;28;20125;-76
2022/05/05 06:12:00;;;;;;;12.88;7.03;;;;;;;;;;5009594;28;20089;-76
2022/05/05 06:14:26;;;;;;;10.38;4.63;;;;;;;;;;5017755;28;20022;-76
2022/05/05 06:16:52;;;;;;;12.88;6.47;;;;;;;;;;5017438;28;20083;-76
2022/05/05 06:19:18;;;;;;;11.27;5.30;;;;;;;;;;5017899;28;20287;-77
2022/05/05 06:21:44;;;;;;;9.25;5.10;;;;;;;;;;5013232;28;20097;-75
2022/05/05 06:24:10;;;;;;;10.38;5.70;;;;;;;;;;5012007;28;20030;-76
2022/05/05 06:26:36;;;;;;;7.65;5.13;;;;;;;;;;5014622;28;20646;-75
2022/05/05 06:29:03;;;;;;;9.93;5.50;;;;;;;;;;5016659;28;20030;-74
2022/05/05 06:31:29;;;;;;;8.35;5.20;;;;;;;;;;5018321;28;20030;-76
2022/05/05 06:33:55;;;;;;;8.98;5.40;;;;;;;;;;5013498;28;20042;-76
2022/05/05 06:36:21;;;;;;;11.93;5.30;;;;;;;;;;5013921;28;20771;-74
2022/05/05 06:38:47;;;;;;;8.65;5.07;;;;;;;;;;5023445;28;20030;-76
2022/05/05 06:41:14;;;;;;;10.77;5.03;;;;;;;;;;5014824;28;20026;-74
2022/05/05 06:43:40;;;;;;;9.57;5.70;;;;;;;;;;5006158;28;20034;-77
2022/05/05 06:46:06;;;;;;;6.80;5.43;;;;;;;;;;5012670;28;20026;-77
2022/05/05 06:48:32;;;;;;;9.55;5.15;;;;;;;;;;5007899;28;20065;-76
2022/05/05 06:50:58;;;;;;;16.73;6.60;;;;;;;;;;5013652;28;20038;-77
2022/05/05 06:53:24;;;;;;;13.45;6.05;;;;;;;;;;5003628;28;20036;-75
2022/05/05 06:55:50;;;;;;;8.52;4.90;;;;;;;;;;5009393;28;20487;-78
2022/05/05 06:58:16;;;;;;;11.20;6.40;;;;;;;;;;5010271;28;20049;-75
2022/05/05 07:03:27;;;;;;;9.43;4.80;;;;;;;;;;5006318;28;20495;-76
2022/05/05 07:05:53;;;;;;;8.90;5.30;;;;;;;;;;5010887;28;20100;-74
2022/05/05 07:08:20;;;;;;;14.35;5.38;;;;;;;;;;5014438;28;20029;-75
2022/05/05 07:10:52;;;;;;;8.60;5.00;;;;;;;;;;5014428;28;20095;-76
2022/05/05 07:13:19;;;;;;;11.25;5.63;;;;;;;;;;5012925;28;20040;-76
2022/05/05 07:15:45;;;;;;;8.93;5.32;;;;;;;;;;5008955;28;20101;-77
2022/05/05 07:18:11;;;;;;;9.02;5.30;;;;;;;;;;5003183;28;20040;-75
2022/05/05 07:20:40;;;;;;;12.43;5.68;;;;;;;;;;5009531;28;20032;-72
2022/05/05 07:23:18;;;;;;;11.60;5.97;;;;;;;;;;5006852;28;20046;-76
2022/05/05 07:25:45;;;;;;;9.20;5.45;;;;;;;;;;5003822;28;20038;-77
2022/05/05 07:28:13;;;;;;;7.50;4.97;;;;;;;;;;5008439;28;20030;-74
2022/05/05 07:30:39;;;;;;;9.82;5.03;;;;;;;;;;5013189;28;20040;-76
2022/05/05 07:33:06;;;;;;;10.80;5.25;;;;;;;;;;5012757;28;20053;-76
2022/05/05 07:35:33;;;;;;;9.77;5.50;;;;;;;;;;5011935;28;20449;-76
2022/05/05 07:37:59;;;;;;;10.88;5.05;;;;;;;;;;5010278;28;20120;-76
2022/05/05 07:40:25;;;;;;;10.02;5.35;;;;;;;;;;5009919;28;20026;-76
2022/05/05 07:42:51;;;;;;;13.50;5.90;;;;;;;;;;5005852;28;20075;-75
2022/05/05 07:45:18;;;;;;;8.25;4.90;;;;;;;;;;5009144;28;20033;-77
2022/05/05 07:47:44;;;;;;;8.10;5.28;;;;;;;;;;5010378;28;20046;-74
2022/05/05 07:50:11;;;;;;;14.55;7.32;;;;;;;;;;5012311;28;20025;-75
2022/05/05 07:52:37;;;;;;;9.10;6.15;;;;;;;;;;5007962;28;20689;-76
2022/05/05 07:55:03;;;;;;;8.95;5.85;;;;;;;;;;5009217;28;20026;-75
2022/05/05 07:57:29;;;;;;;9.20;5.70;;;;;;;;;;5006878;28;20480;-75
2022/05/05 07:59:56;;;;;;;9.55;6.03;;;;;;;;;;5016188;28;20153;-76
2022/05/05 08:02:23;;;;;;;10.40;5.40;;;;;;;;;;5019548;28;20040;-75
2022/05/05 08:04:49;;;;;;;11.18;5.40;;;;;;;;;;5016749;28;20036;-75
2022/05/05 08:07:16;;;;;;;9.38;6.70;;;;;;;;;;5012884;28;20026;-75
2022/05/05 08:09:42;;;;;;;8.80;5.28;;;;;;;;;;5008809;28;20045;-76
2022/05/05 08:12:08;;;;;;;9.98;5.40;;;;;;;;;;5011180;28;20042;-78
2022/05/05 08:14:34;;;;;;;8.63;5.65;;;;;;;;;;5011155;28;20120;-75
2022/05/05 08:17:00;;;;;;;9.32;5.10;;;;;;;;;;5015179;28;20029;-76
2022/05/05 08:19:27;;;;;;;9.75;6.00;;;;;;;;;;5014123;28;20355;-76
2022/05/05 08:21:53;;;;;;;8.13;4.97;;;;;;;;;;5011626;28;20026;-77
2022/05/05 08:29:49;;;;;;;7.93;5.10;;;;;;;;;;5004056;28;20048;-76
2022/05/05 08:32:15;;;;;;;10.13;5.35;;;;;;;;;;5010376;28;20481;-75
2022/05/05 08:34:41;;;;;;;7.80;5.38;;;;;;;;;;5009691;28;20026;-74
2022/05/05 08:37:07;;;;;;;9.55;5.45;;;;;;;;;;5008096;28;20061;-74
2022/05/05 08:39:33;;;;;;;11.55;6.40;;;;;;;;;;5004311;28;20039;-75
2022/05/05 08:41:59;;;;;;;9.73;5.88;;;;;;;;;;5017847;28;20030;-75
2022/05/05 08:44:25;;;;;;;9.93;5.00;;;;;;;;;;5011716;28;20057;-76
2022/05/05 08:46:53;;;;;;;11.10;6.65;;;;;;;;;;5008870;28;20081;-77
2022/05/05 08:49:22;;;;;;;8.60;6.47;;;;;;;;;;5005570;28;20111;-75
2022/05/05 08:51:51;;;;;;;12.50;6.82;;;;;;;;;;5005904;28;20030;-73
2022/05/05 08:54:17;;;;;;;9.68;6.40;;;;;;;;;;5008183;28;20036;-74
2022/05/05 08:56:54;;;;;;;10.45;4.95;;;;;;;;;;5014561;28;20082;-74
2022/05/05 08:59:21;;;;;;;13.23;6.15;;;;;;;;;;5015283;28;20034;-74
2022/05/05 09:01:48;;;;;;;8.63;5.85;;;;;;;;;;5007291;28;20034;-75
2022/05/05 09:04:14;;;;;;;12.10;5.80;;;;;;;;;;5001463;28;20084;-76
2022/05/05 09:06:41;;;;;;;8.90;5.80;;;;;;;;;;4996456;28;20033;-75
2022/05/05 09:09:22;;;;;;;7.75;4.72;;;;;;;;;;5001361;28;20025;-75
2022/05/05 09:12:04;;;;;;;11.88;5.88;;;;;;;;;;4999736;28;20055;-76
2022/05/05 09:14:41;;;;;;;11.63;6.13;;;;;;;;;;5005327;28;20167;-76
2022/05/05 09:17:08;;;;;;;8.25;4.97;;;;;;;;;;5004871;28;20018;-75
2022/05/05 09:19:38;;;;;;;8.98;4.57;;;;;;;;;;5003928;28;20615;-75
2022/05/05 09:22:05;;;;;;;11.18;5.40;;;;;;;;;;5017536;28;20038;-75
2022/05/05 09:24:34;;;;;;;5.70;3.80;;;;;;;;;;5009087;28;20030;-76
2022/05/05 09:27:14;;;;;;;8.20;4.38;;;;;;;;;;5009466;28;20113;-77
2022/05/05 09:29:40;;;;;;;10.77;4.88;;;;;;;;;;5011671;28;20080;-77
2022/05/05 09:32:12;;;;;;;8.60;4.60;;;;;;;;;;5014021;28;20280;-77
2022/05/05 09:34:39;;;;;;;8.88;5.95;;;;;;;;;;5011562;28;20083;-74
2022/05/05 09:37:18;;;;;;;12.13;4.88;;;;;;;;;;5010974;28;20629;-74
2022/05/05 09:39:44;;;;;;;9.20;4.55;;;;;;;;;;5006717;28;20033;-74
2022/05/05 09:42:10;;;;;;;6.45;4.40;;;;;;;;;;5007423;28;20037;-75
2022/05/05 09:44:46;;;;;;;6.20;4.07;;;;;;;;;;5010648;28;20045;-76
2022/05/05 09:47:16;;;;;;;5.53;3.85;;;;;;;;;;5012139;28;20069;-73
2022/05/05 09:49:57;;;;;;;7.10;4.05;;;;;;;;;;5010343;28;20488;-73
2022/05/05 09:57:58;;;;;;;5.00;3.95;;;;;;;;;;5005211;28;20095;-76
2022/05/05 10:05:46;;;;;;;4.97;3.72;;;;;;;;;;5011475;28;20101;-77
2022/05/05 10:08:19;;;;;;;5.00;3.13;;;;;;;;;;5005291;28;20077;-75
2022/05/05 10:10:45;;;;;;;6.13;4.47;;;;;;;;;;5005464;28;20080;-75
2022/05/05 10:13:14;;;;;;;6.00;4.05;;;;;;;;;;4995465;28;20033;-77
2022/05/05 10:15:40;;;;;;;6.93;3.90;;;;;;;;;;4998047;28;20053;-76
2022/05/05 10:18:08;;;;;;;6.63;3.60;;;;;;;;;;4998622;28;20046;-76
2022/05/05 10:20:35;;;;;;;5.72;3.40;;;;;;;;;;4997555;28;20025;-76
2022/05/05 10:23:10;;;;;;;5.13;3.17;;;;;;;;;;5004525;28;20936;-76
2022/05/05 10:25:37;;;;;;;4.38;3.33;;;;;;;;;;5000550;28;20029;-76
2022/05/05 10:28:03;;;;;;;7.68;3.60;;;;;;;;;;4996881;28;20026;-76
2022/05/05 10:30:37;;;;;;;6.28;3.22;;;;;;;;;;4998392;28;20033;-76
2022/05/05 10:33:05;;;;;;;4.18;3.55;;;;;;;;;;4997970;28;20018;-76
2022/05/05 10:35:39;;;;;;;6.30;3.28;;;;;;;;;;4997503;28;20037;-75
2022/05/05 10:38:26;;;;;;;5.90;3.83;;;;;;;;;;5000550;28;20022;-76
2022/05/05 10:40:52;;;;;;;13.10;3.50;;;;;;;;;;5003835;28;20027;-77
2022/05/05 10:43:34;;;;;;;6.90;3.58;;;;;;;;;;5007597;28;20038;-77
2022/05/05 10:46:00;;;;;;;5.05;3.42;;;;;;;;;;5008267;28;20022;-77
2022/05/05 10:48:30;;;;;;;5.72;3.63;;;;;;;;;;4999724;28;20037;-77
2022/05/05 10:51:06;;;;;;;3.53;2.95;;;;;;;;;;5000972;28;20108;-76
2022/05/05 10:53:32;;;;;;;5.55;3.00;;;;;;;;;;4994772;28;20036;-76
2022/05/05 10:56:03;;;;;;;3.75;2.88;;;;;;;;;;4996767;28;20014;-77
2022/05/05 10:58:48;;;;;;;4.75;2.97;;;;;;;;;;4997288;28;20034;-77
2022/05/05 11:01:14;;;;;;;7.32;3.10;;;;;;;;;;4996898;28;20029;-76
2022/05/05 11:04:00;;;;;;;4.88;2.80;;;;;;;;;;4998653;28;20108;-75
2022/05/05 11:06:28;;;;;;;5.03;3.28;;;;;;;;;;5004021;28;20036;-76
2022/05/05 11:08:54;;;;;;;4.55;3.15;;;;;;;;;;5003285;28;20098;-77
2022/05/05 11:21:32;;;;;;;5.28;2.90;;;;;;;;;;5001188;28;20408;-75
2022/05/05 11:23:07;;;;;;;2.85;2.28;;;;;;;;;;4981528;28;20042;-77
2022/05/05 11:25:33;;;;;;;4.15;2.80;;;;;;;;;;4966763;28;20046;-77
2022/05/05 11:27:59;;;;;;;4.70;3.45;;;;;;;;;;4992460;28;20069;-76
2022/05/05 11:30:25;;;;;;;6.40;3.63;;;;;;;;;;5006361;28;20145;-76
2022/05/05 11:32:52;;;;;;;5.80;2.80;;;;;;;;;;5003574;28;20029;-76
2022/05/05 11:35:21;;;;;;;4.45;2.47;;;;;;;;;;5017762;28;20103;-76
2022/05/05 11:37:47;;;;;;;4.03;2.40;;;;;;;;;;5005892;28;20512;-77
2022/05/05 11:40:14;;;;;;;3.47;2.72;;;;;;;;;;4995833;28;20116;-76
2022/05/05 11:44:14;;;;;;;3.45;2.50;;;;;;;;;;5006438;28;20108;-75
2022/05/05 11:45:29;;;;;;;5.07;2.55;;;;;;;;;;4999548;28;20040;-75
2022/05/05 11:47:56;;;;;;;2.55;2.20;;;;;;;;;;5000182;28;20061;-77
2022/05/05 11:50:22;;;;;;;4.45;2.28;;;;;;;;;;5000362;28;20037;-76
2022/05/05 11:52:48;;;;;;;3.33;2.60;;;;;;;;;;5007629;28;20610;-77
2022/05/05 11:55:17;;;;;;;4.18;2.47;;;;;;;;;;5000945;28;20037;-75
2022/05/05 11:57:45;;;;;;;4.72;2.85;;;;;;;;;;5000646;28;20025;-75
2022/05/05 12:02:57;;;;;;;3.83;2.60;;;;;;;;;;5011812;28;20048;-77
2022/05/05 12:05:24;;;;;;;5.88;3.17;;;;;;;;;;5004406;28;20031;-75
2022/05/05 12:07:51;;;;;;;4.30;3.20;;;;;;;;;;5001439;28;20040;-76
2022/05/05 12:10:19;;;;;;;4.18;2.88;;;;;;;;;;5004185;28;20022;-77
2022/05/05 12:12:46;;;;;;;4.82;2.97;;;;;;;;;;5011042;28;20056;-76
2022/05/05 12:15:13;;;;;;;4.45;2.55;;;;;;;;;;5001620;28;20058;-79
2022/05/05 12:17:43;;;;;;;3.30;2.33;;;;;;;;;;5004352;28;20929;-79
2022/05/05 12:20:11;;;;;;;3.80;2.28;;;;;;;;;;5003484;28;20030;-77
2022/05/05 12:22:42;;;;;;;4.00;2.17;;;;;;;;;;5004866;28;20037;-77
2022/05/05 12:25:16;;;;;;;2.38;1.98;;;;;;;;;;5007882;28;20054;-78
2022/05/05 12:27:47;;;;;;;2.33;1.90;;;;;;;;;;5022496;28;20026;-75
2022/05/05 12:30:29;;;;;;;3.40;1.90;;;;;;;;;;5005424;28;20495;-76
2022/05/05 12:32:55;;;;;;;4.78;2.33;;;;;;;;;;5008514;28;20646;-74
2022/05/05 12:35:35;;;;;;;6.60;2.83;;;;;;;;;;5006496;28;20040;-76
2022/05/05 12:38:02;;;;;;;5.55;2.67;;;;;;;;;;5003980;28;20026;-75
2022/05/05 12:40:29;;;;;;;4.63;2.33;;;;;;;;;;5011631;28;20036;-75
2022/05/05 12:43:02;;;;;;;4.53;2.83;;;;;;;;;;5011792;28;20030;-75
2022/05/05 12:45:31;;;;;;;3.63;2.58;;;;;;;;;;5011450;28;20045;-76
2022/05/05 12:47:59;;;;;;;4.20;2.45;;;;;;;;;;5015752;28;20045;-77
2022/05/05 12:50:34;;;;;;;4.05;2.63;;;;;;;;;;5012918;28;20030;-78
2022/05/05 13:01:22;;;;;;;5.22;2.45;;;;;;;;;;5023454;28;20048;-77
2022/05/05 13:03:49;;;;;;;4.07;2.00;;;;;;;;;;5019204;28;20018;-77
2022/05/05 13:06:15;;;;;;;4.03;2.28;;;;;;;;;;5013502;28;20512;-77
2022/05/05 13:08:41;;;;;;;5.10;3.35;;;;;;;;;;5012542;28;20040;-77
2022/05/05 13:11:07;;;;;;;6.43;2.40;;;;;;;;;;5007888;28;20119;-77
2022/05/05 13:13:33;;;;;;;3.55;2.30;;;;;;;;;;5008013;28;20034;-75
2022/05/05 13:15:59;;;;;;;5.78;2.30;;;;;;;;;;5011237;28;20118;-75
2022/05/05 13:18:25;;;;;;;3.15;2.53;;;;;;;;;;5016101;28;20030;-74
2022/05/05 13:20:51;;;;;;;3.28;2.30;;;;;;;;;;5009935;28;20030;-76
2022/05/05 13:23:17;;;;;;;5.80;2.45;;;;;;;;;;5006743;28;20048;-74
2022/05/05 13:25:44;;;;;;;5.45;2.88;;;;;;;;;;5007472;28;20049;-75
2022/05/05 13:28:10;;;;;;;3.30;2.30;;;;;;;;;;5007696;28;20022;-75
2022/05/05 13:30:36;;;;;;;3.33;2.40;;;;;;;;;;5011747;28;20826;-74
2022/05/05 13:33:03;;;;;;;6.03;2.20;;;;;;;;;;5015451;28;20026;-75
2022/05/05 13:35:29;;;;;;;3.67;2.40;;;;;;;;;;5011921;28;20149;-75
2022/05/05 13:37:58;;;;;;;4.85;2.38;;;;;;;;;;5009730;28;20105;-75
2022/05/05 13:40:25;;;;;;;3.58;2.13;;;;;;;;;;5014263;28;20034;-74
2022/05/05 13:42:51;;;;;;;4.18;2.55;;;;;;;;;;5012382;28;20029;-76
2022/05/05 13:45:17;;;;;;;6.05;2.60;;;;;;;;;;5011188;28;20029;-74
2022/05/05 13:47:44;;;;;;;3.17;2.58;;;;;;;;;;5013264;28;20006;-75
2022/05/05 13:50:11;;;;;;;3.63;2.28;;;;;;;;;;5008328;28;20022;-75
2022/05/05 13:52:40;;;;;;;5.15;2.80;;;;;;;;;;5009639;28;20064;-74
2022/05/05 13:55:06;;;;;;;4.00;2.40;;;;;;;;;;5010668;28;20077;-76
2022/05/05 13:57:32;;;;;;;2.97;2.30;;;;;;;;;;5015132;28;20118;-75
2022/05/05 13:59:58;;;;;;;3.90;2.67;;;;;;;;;;5016920;28;20112;-74
2022/05/05 14:02:24;;;;;;;3.05;2.60;;;;;;;;;;5013761;28;20034;-75
2022/05/05 14:04:51;;;;;;;3.40;2.40;;;;;;;;;;5024883;28;20030;-75
2022/05/05 14:12:10;;;;;;;3.85;2.50;;;;;;;;;;5011831;28;20126;-75
2022/05/05 14:12:48;;;;;;;6.13;2.75;;;;;;;;;;5012899;28;20044;-76
2022/05/05 14:15:14;;;;;;;5.55;2.50;;;;;;;;;;5015994;28;20045;-76
2022/05/05 14:17:41;;;;;;;6.38;2.58;;;;;;;;;;5013794;28;20026;-75
2022/05/05 14:20:07;;;;;;;4.32;2.40;;;;;;;;;;5010034;28;20029;-75
2022/05/05 14:22:33;;;;;;;3.38;2.30;;;;;;;;;;5006090;28;20037;-76
2022/05/05 14:24:59;;;;;;;3.38;2.38;;;;;;;;;;5011690;28;20076;-77
2022/05/05 14:27:26;;;;;;;4.90;2.50;;;;;;;;;;5011563;28;20029;-74
2022/05/05 14:29:52;;;;;;;3.53;2.28;;;;;;;;;;5009580;28;20130;-75
2022/05/05 14:32:18;;;;;;;3.97;2.58;;;;;;;;;;5013729;28;20022;-75
2022/05/05 14:34:44;;;;;;;4.78;2.40;;;;;;;;;;5011812;28;20022;-75
2022/05/05 14:37:11;;;;;;;6.43;2.63;;;;;;;;;;5013547;28;20041;-76
2022/05/05 14:39:37;;;;;;;2.88;2.40;;;;;;;;;;5009529;28;20034;-76
2022/05/05 14:42:03;;;;;;;3.45;2.63;;;;;;;;;;5005509;28;20076;-74
2022/05/05 14:44:31;;;;;;;3.80;2.10;;;;;;;;;;5006781;28;20040;-75
2022/05/05 14:46:57;;;;;;;3.22;2.92;;;;;;;;;;5003019;28;20807;-76
2022/05/05 14:49:24;;;;;;;4.50;2.17;;;;;;;;;;5008094;28;20041;-75
2022/05/05 14:51:50;;;;;;;4.22;2.33;;;;;;;;;;5010020;28;20152;-76
2022/05/05 14:54:16;;;;;;;4.60;2.60;;;;;;;;;;5010917;28;20072;-76
2022/05/05 14:56:42;;;;;;;5.95;2.78;;;;;;;;;;4999349;28;20022;-76
2022/05/05 14:59:08;;;;;;;3.63;2.40;;;;;;;;;;4998025;28;20030;-77
2022/05/05 15:01:34;;;;;;;2.95;2.25;;;;;;;;;;5006363;28;20034;-77
2022/05/05 15:04:00;;;;;;;3.13;2.45;;;;;;;;;;5005817;28;20026;-77
2022/05/05 15:06:26;;;;;;;2.90;1.98;;;;;;;;;;5005778;28;20049;-76
2022/05/05 15:08:53;;;;;;;2.80;2.20;;;;;;;;;;5014660;28;20034;-76
2022/05/05 15:11:19;;;;;;;3.60;1.88;;;;;;;;;;5013711;28;20022;-77
2022/05/05 15:13:45;;;;;;;3.65;2.60;;;;;;;;;;5013064;28;20439;-75
2022/05/05 15:16:12;;;;;;;4.10;2.42;;;;;;;;;;5008932;28;20117;-76
2022/05/05 15:18:38;;;;;;;4.72;2.35;;;;;;;;;;5007943;28;20033;-75
2022/05/05 15:21:04;;;;;;;4.43;2.58;;;;;;;;;;5006358;28;20107;-76
2022/05/05 15:23:31;;;;;;;4.68;2.20;;;;;;;;;;5005963;28;20038;-76
2022/05/05 15:25:57;;;;;;;4.22;2.10;;;;;;;;;;5004789;28;20352;-76
2022/05/05 15:28:23;;;;;;;3.70;2.42;;;;;;;;;;5005692;28;20029;-77
2022/05/05 15:30:49;;;;;;;5.35;2.70;;;;;;;;;;5012099;28;20034;-75
2022/05/05 15:33:15;;;;;;;3.10;2.25;;;;;;;;;;5008308;28;20026;-75
2022/05/05 15:35:42;;;;;;;3.72;2.92;;;;;;;;;;5007763;28;20033;-75
2022/05/05 15:38:08;;;;;;;3.53;2.30;;;;;;;;;;5010284;28;20022;-76
2022/05/05 15:40:35;;;;;;;3.17;2.85;;;;;;;;;;5007101;28;20030;-76